sensor_id;sensor_type;location;lat;lon;timestamp;pressure;altitude;pressure_sealevel;temperature;humidity
34065;BME280;20339;49.754;20.158;2022-09-06T00:01:41;97372.80;;;11.47;71.42
34065;BME280;20339;49.754;20.158;2022-09-06T00:04:12;97368.81;;;11.50;71.51
34065;BME280;20339;49.754;20.158;2022-09-06T00:06:43;97369.03;;;11.56;70.91
34065;BME280;20339;49.754;20.158;2022-09-06T00:09:14;97369.62;;;11.63;70.78
34065;BME280;20339;49.754;20.158;2022-09-06T00:11:45;97363.08;;;11.67;70.66
34065;BME280;20339;49.754;20.158;2022-09-06T00:14:16;97368.25;;;11.72;70.61
34065;BME280;20339;49.754;20.158;2022-09-06T00:16:47;97366.80;;;11.73;70.56
34065;BME280;20339;49.754;20.158;2022-09-06T00:19:18;97365.15;;;11.66;70.91
34065;BME280;20339;49.754;20.158;2022-09-06T00:21:49;97363.15;;;11.56;70.85
34065;BME280;20339;49.754;20.158;2022-09-06T00:24:23;97365.26;;;11.53;70.91
34065;BME280;20339;49.754;20.158;2022-09-06T00:26:54;97364.62;;;11.51;70.91
34065;BME280;20339;49.754;20.158;2022-09-06T00:29:25;97365.84;;;11.49;71.12
34065;BME280;20339;49.754;20.158;2022-09-06T00:31:56;97365.15;;;11.49;71.12
34065;BME280;20339;49.754;20.158;2022-09-06T00:34:28;97363.67;;;11.49;71.25
34065;BME280;20339;49.754;20.158;2022-09-06T00:36:59;97364.59;;;11.54;71.39
34065;BME280;20339;49.754;20.158;2022-09-06T00:39:30;97362.40;;;11.62;71.27
34065;BME280;20339;49.754;20.158;2022-09-06T00:42:01;97357.77;;;11.65;71.05
34065;BME280;20339;49.754;20.158;2022-09-06T00:44:32;97360.69;;;11.67;71.05
34065;BME280;20339;49.754;20.158;2022-09-06T00:47:04;97361.27;;;11.67;71.01
34065;BME280;20339;49.754;20.158;2022-09-06T00:49:39;97355.86;;;11.53;70.87
34065;BME280;20339;49.754;20.158;2022-09-06T00:52:13;97351.34;;;11.49;71.07
34065;BME280;20339;49.754;20.158;2022-09-06T00:54:45;97354.11;;;11.51;71.17
34065;BME280;20339;49.754;20.158;2022-09-06T00:57:18;97352.42;;;11.57;71.16
34065;BME280;20339;49.754;20.158;2022-09-06T00:59:49;97357.52;;;11.58;71.05
34065;BME280;20339;49.754;20.158;2022-09-06T01:02:21;97357.19;;;11.63;71.01
34065;BME280;20339;49.754;20.158;2022-09-06T01:04:52;97352.61;;;11.67;70.88
34065;BME280;20339;49.754;20.158;2022-09-06T01:07:36;97358.15;;;11.64;70.89
34065;BME280;20339;49.754;20.158;2022-09-06T01:10:31;97355.59;;;11.63;71.20
34065;BME280;20339;49.754;20.158;2022-09-06T01:13:16;97353.78;;;11.66;71.38
34065;BME280;20339;49.754;20.158;2022-09-06T01:15:53;97352.19;;;11.66;71.36
34065;BME280;20339;49.754;20.158;2022-09-06T01:18:37;97350.08;;;11.63;71.38
34065;BME280;20339;49.754;20.158;2022-09-06T01:21:36;97362.07;;;11.66;71.56
34065;BME280;20339;49.754;20.158;2022-09-06T01:24:35;97360.88;;;11.70;71.56
34065;BME280;20339;49.754;20.158;2022-09-06T01:30:11;97360.59;;;11.73;71.56
34065;BME280;20339;49.754;20.158;2022-09-06T01:32:52;97361.86;;;11.77;71.75
34065;BME280;20339;49.754;20.158;2022-09-06T01:35:28;97357.45;;;11.75;71.39
34065;BME280;20339;49.754;20.158;2022-09-06T01:38:01;97358.25;;;11.73;71.62
34065;BME280;20339;49.754;20.158;2022-09-06T01:43:07;97358.98;;;11.68;71.63
34065;BME280;20339;49.754;20.158;2022-09-06T01:45:53;97354.48;;;11.65;71.79
34065;BME280;20339;49.754;20.158;2022-09-06T01:48:38;97355.00;;;11.65;72.00
34065;BME280;20339;49.754;20.158;2022-09-06T01:51:18;97351.71;;;11.65;71.85
34065;BME280;20339;49.754;20.158;2022-09-06T01:54:04;97354.69;;;11.63;71.96
34065;BME280;20339;49.754;20.158;2022-09-06T01:56:41;97351.83;;;11.62;71.95
34065;BME280;20339;49.754;20.158;2022-09-06T01:59:41;97350.45;;;11.59;71.78
34065;BME280;20339;49.754;20.158;2022-09-06T02:02:23;97347.95;;;11.50;71.66
34065;BME280;20339;49.754;20.158;2022-09-06T02:04:58;97346.52;;;11.41;71.77
34065;BME280;20339;49.754;20.158;2022-09-06T02:07:35;97348.26;;;11.38;72.01
34065;BME280;20339;49.754;20.158;2022-09-06T02:10:13;97345.81;;;11.36;71.99
34065;BME280;20339;49.754;20.158;2022-09-06T02:12:51;97346.34;;;11.31;71.80
34065;BME280;20339;49.754;20.158;2022-09-06T02:15:25;97345.34;;;11.26;71.97
34065;BME280;20339;49.754;20.158;2022-09-06T02:17:59;97347.68;;;11.28;72.14
34065;BME280;20339;49.754;20.158;2022-09-06T02:20:34;97351.75;;;11.23;72.15
34065;BME280;20339;49.754;20.158;2022-09-06T02:23:08;97342.14;;;11.20;72.25
34065;BME280;20339;49.754;20.158;2022-09-06T02:25:41;97340.75;;;11.07;72.30
34065;BME280;20339;49.754;20.158;2022-09-06T02:28:14;97339.73;;;11.01;72.89
34065;BME280;20339;49.754;20.158;2022-09-06T02:30:46;97339.47;;;11.02;73.14
34065;BME280;20339;49.754;20.158;2022-09-06T02:33:20;97335.64;;;10.99;73.42
34065;BME280;20339;49.754;20.158;2022-09-06T02:35:55;97337.36;;;10.90;73.56
34065;BME280;20339;49.754;20.158;2022-09-06T02:38:32;97330.90;;;10.87;73.70
34065;BME280;20339;49.754;20.158;2022-09-06T02:41:05;97330.23;;;10.84;73.84
34065;BME280;20339;49.754;20.158;2022-09-06T02:43:36;97325.38;;;10.84;74.10
34065;BME280;20339;49.754;20.158;2022-09-06T02:46:08;97325.52;;;10.82;74.26
34065;BME280;20339;49.754;20.158;2022-09-06T02:48:41;97329.33;;;10.76;74.54
34065;BME280;20339;49.754;20.158;2022-09-06T02:51:12;97324.98;;;10.76;74.81
34065;BME280;20339;49.754;20.158;2022-09-06T02:53:43;97323.67;;;10.69;74.83
34065;BME280;20339;49.754;20.158;2022-09-06T02:56:14;97327.77;;;10.70;75.09
34065;BME280;20339;49.754;20.158;2022-09-06T02:58:46;97326.94;;;10.74;75.15
34065;BME280;20339;49.754;20.158;2022-09-06T03:01:20;97326.38;;;10.84;75.45
34065;BME280;20339;49.754;20.158;2022-09-06T03:03:51;97325.81;;;10.95;75.57
34065;BME280;20339;49.754;20.158;2022-09-06T03:06:22;97324.61;;;11.01;75.40
34065;BME280;20339;49.754;20.158;2022-09-06T03:08:53;97320.80;;;11.05;75.45
34065;BME280;20339;49.754;20.158;2022-09-06T03:11:25;97318.29;;;10.97;75.52
34065;BME280;20339;49.754;20.158;2022-09-06T03:13:56;97312.91;;;10.92;75.75
34065;BME280;20339;49.754;20.158;2022-09-06T03:16:29;97311.14;;;11.00;75.96
34065;BME280;20339;49.754;20.158;2022-09-06T03:19:01;97307.46;;;11.03;75.95
34065;BME280;20339;49.754;20.158;2022-09-06T03:21:32;97310.06;;;10.79;75.88
34065;BME280;20339;49.754;20.158;2022-09-06T03:24:03;97314.79;;;10.54;76.43
34065;BME280;20339;49.754;20.158;2022-09-06T03:26:34;97312.52;;;10.43;77.04
34065;BME280;20339;49.754;20.158;2022-09-06T03:29:05;97310.62;;;10.44;77.23
34065;BME280;20339;49.754;20.158;2022-09-06T03:31:36;97311.54;;;10.52;77.34
34065;BME280;20339;49.754;20.158;2022-09-06T03:34:08;97311.94;;;10.59;77.66
34065;BME280;20339;49.754;20.158;2022-09-06T03:36:39;97309.19;;;10.63;77.68
34065;BME280;20339;49.754;20.158;2022-09-06T03:39:10;97314.05;;;10.58;77.96
34065;BME280;20339;49.754;20.158;2022-09-06T03:41:41;97313.49;;;10.53;78.05
34065;BME280;20339;49.754;20.158;2022-09-06T03:44:15;97315.64;;;10.58;78.25
34065;BME280;20339;49.754;20.158;2022-09-06T03:46:46;97314.51;;;10.53;78.31
34065;BME280;20339;49.754;20.158;2022-09-06T03:49:17;97313.86;;;10.46;78.56
34065;BME280;20339;49.754;20.158;2022-09-06T03:51:48;97311.99;;;10.46;78.65
34065;BME280;20339;49.754;20.158;2022-09-06T03:54:19;97310.78;;;10.51;78.88
34065;BME280;20339;49.754;20.158;2022-09-06T03:56:50;97311.80;;;10.54;78.85
34065;BME280;20339;49.754;20.158;2022-09-06T03:59:24;97314.11;;;10.59;78.76
34065;BME280;20339;49.754;20.158;2022-09-06T04:01:56;97315.14;;;10.67;78.71
34065;BME280;20339;49.754;20.158;2022-09-06T04:04:27;97314.89;;;10.79;78.84
34065;BME280;20339;49.754;20.158;2022-09-06T04:06:58;97313.17;;;10.91;78.97
34065;BME280;20339;49.754;20.158;2022-09-06T04:09:29;97309.20;;;10.92;79.04
34065;BME280;20339;49.754;20.158;2022-09-06T04:12:01;97308.16;;;10.78;79.16
34065;BME280;20339;49.754;20.158;2022-09-06T04:14:32;97307.33;;;10.69;79.45
34065;BME280;20339;49.754;20.158;2022-09-06T04:17:03;97306.02;;;10.71;79.66
34065;BME280;20339;49.754;20.158;2022-09-06T04:19:34;97301.50;;;10.89;79.91
34065;BME280;20339;49.754;20.158;2022-09-06T04:22:06;97301.80;;;11.30;80.55
34065;BME280;20339;49.754;20.158;2022-09-06T04:24:37;97310.82;;;11.67;80.22
34065;BME280;20339;49.754;20.158;2022-09-06T04:27:10;97310.55;;;11.81;79.44
34065;BME280;20339;49.754;20.158;2022-09-06T04:29:42;97309.99;;;11.97;79.40
34065;BME280;20339;49.754;20.158;2022-09-06T04:32:13;97305.00;;;12.54;79.70
34065;BME280;20339;49.754;20.158;2022-09-06T04:34:44;97299.37;;;13.19;78.79
34065;BME280;20339;49.754;20.158;2022-09-06T04:37:15;97297.42;;;13.74;77.27
34065;BME280;20339;49.754;20.158;2022-09-06T04:39:49;97292.44;;;14.10;75.74
34065;BME280;20339;49.754;20.158;2022-09-06T04:42:20;97294.46;;;13.94;74.40
34065;BME280;20339;49.754;20.158;2022-09-06T04:44:51;97297.45;;;13.78;74.39
34065;BME280;20339;49.754;20.158;2022-09-06T04:47:22;97298.55;;;13.62;74.00
34065;BME280;20339;49.754;20.158;2022-09-06T04:49:53;97302.73;;;13.41;73.85
34065;BME280;20339;49.754;20.158;2022-09-06T04:52:24;97302.47;;;13.27;73.88
34065;BME280;20339;49.754;20.158;2022-09-06T04:54:55;97306.21;;;13.24;74.39
34065;BME280;20339;49.754;20.158;2022-09-06T04:57:27;97302.94;;;13.92;75.65
34065;BME280;20339;49.754;20.158;2022-09-06T04:59:58;97306.44;;;14.90;74.86
34065;BME280;20339;49.754;20.158;2022-09-06T05:02:29;97309.67;;;15.79;73.32
34065;BME280;20339;49.754;20.158;2022-09-06T05:05:00;97311.47;;;16.69;72.31
34065;BME280;20339;49.754;20.158;2022-09-06T05:07:31;97306.27;;;17.31;69.82
34065;BME280;20339;49.754;20.158;2022-09-06T05:10:04;97305.20;;;17.42;67.76
34065;BME280;20339;49.754;20.158;2022-09-06T05:12:35;97307.95;;;17.52;67.14
34065;BME280;20339;49.754;20.158;2022-09-06T05:15:08;97304.48;;;18.13;67.73
34065;BME280;20339;49.754;20.158;2022-09-06T05:17:39;97304.54;;;18.91;66.63
34065;BME280;20339;49.754;20.158;2022-09-06T05:20:12;97302.89;;;19.27;65.29
34065;BME280;20339;49.754;20.158;2022-09-06T05:22:50;97305.45;;;18.91;63.09
34065;BME280;20339;49.754;20.158;2022-09-06T05:25:22;97308.36;;;18.73;63.05
34065;BME280;20339;49.754;20.158;2022-09-06T05:27:53;97308.42;;;19.08;62.28
34065;BME280;20339;49.754;20.158;2022-09-06T05:30:25;97305.92;;;19.45;61.48
34065;BME280;20339;49.754;20.158;2022-09-06T05:32:57;97303.38;;;19.26;61.04
34065;BME280;20339;49.754;20.158;2022-09-06T05:35:28;97305.30;;;19.00;60.79
34065;BME280;20339;49.754;20.158;2022-09-06T05:37:59;97309.42;;;18.52;60.22
34065;BME280;20339;49.754;20.158;2022-09-06T05:40:30;97311.16;;;18.34;61.11
34065;BME280;20339;49.754;20.158;2022-09-06T05:43:02;97309.65;;;19.05;61.33
34065;BME280;20339;49.754;20.158;2022-09-06T05:45:33;97313.61;;;20.32;59.90
34065;BME280;20339;49.754;20.158;2022-09-06T05:48:04;97313.27;;;21.70;57.83
34065;BME280;20339;49.754;20.158;2022-09-06T05:50:35;97313.02;;;22.98;56.28
34065;BME280;20339;49.754;20.158;2022-09-06T05:53:07;97310.55;;;23.64;53.69
34065;BME280;20339;49.754;20.158;2022-09-06T05:55:39;97316.18;;;23.18;52.36
34065;BME280;20339;49.754;20.158;2022-09-06T05:58:14;97316.02;;;22.91;52.10
34065;BME280;20339;49.754;20.158;2022-09-06T06:00:45;97315.59;;;22.90;51.84
34065;BME280;20339;49.754;20.158;2022-09-06T06:03:17;97321.73;;;22.56;51.31
34065;BME280;20339;49.754;20.158;2022-09-06T06:05:48;97317.23;;;22.13;50.79
34065;BME280;20339;49.754;20.158;2022-09-06T06:08:19;97318.96;;;21.14;50.36
34065;BME280;20339;49.754;20.158;2022-09-06T06:10:51;97325.70;;;21.00;51.35
34065;BME280;20339;49.754;20.158;2022-09-06T06:13:22;97326.86;;;21.00;51.71
34065;BME280;20339;49.754;20.158;2022-09-06T06:15:53;97325.91;;;21.08;52.05
34065;BME280;20339;49.754;20.158;2022-09-06T06:18:24;97326.52;;;21.29;51.69
34065;BME280;20339;49.754;20.158;2022-09-06T06:21:12;97320.76;;;21.29;51.27
34065;BME280;20339;49.754;20.158;2022-09-06T06:23:45;97324.76;;;20.93;51.31
34065;BME280;20339;49.754;20.158;2022-09-06T06:26:20;97325.71;;;20.72;51.63
34065;BME280;20339;49.754;20.158;2022-09-06T06:28:51;97319.55;;;20.74;51.55
34065;BME280;20339;49.754;20.158;2022-09-06T06:31:24;97318.85;;;21.11;51.74
34065;BME280;20339;49.754;20.158;2022-09-06T06:33:55;97317.48;;;21.84;51.53
34065;BME280;20339;49.754;20.158;2022-09-06T06:36:27;97314.91;;;23.79;51.63
34065;BME280;20339;49.754;20.158;2022-09-06T06:39:01;97313.55;;;25.55;48.67
34065;BME280;20339;49.754;20.158;2022-09-06T06:41:33;97304.86;;;26.36;45.86
34065;BME280;20339;49.754;20.158;2022-09-06T06:44:06;97305.95;;;26.86;44.17
34065;BME280;20339;49.754;20.158;2022-09-06T06:46:38;97305.27;;;27.48;43.48
34065;BME280;20339;49.754;20.158;2022-09-06T06:49:13;97304.70;;;28.92;42.77
34065;BME280;20339;49.754;20.158;2022-09-06T06:51:44;97308.70;;;30.22;40.67
34065;BME280;20339;49.754;20.158;2022-09-06T06:54:16;97314.59;;;30.27;39.15
34065;BME280;20339;49.754;20.158;2022-09-06T06:56:47;97316.61;;;29.31;38.16
34065;BME280;20339;49.754;20.158;2022-09-06T06:59:18;97313.58;;;28.54;39.01
34065;BME280;20339;49.754;20.158;2022-09-06T07:01:50;97313.44;;;27.88;39.06
34065;BME280;20339;49.754;20.158;2022-09-06T07:04:21;97313.88;;;27.72;39.58
34065;BME280;20339;49.754;20.158;2022-09-06T07:06:53;97311.93;;;28.17;37.91
34065;BME280;20339;49.754;20.158;2022-09-06T07:09:25;97311.39;;;28.45;38.65
34065;BME280;20339;49.754;20.158;2022-09-06T07:11:56;97318.17;;;29.26;36.24
34065;BME280;20339;49.754;20.158;2022-09-06T07:14:27;97318.86;;;29.92;37.64
34065;BME280;20339;49.754;20.158;2022-09-06T07:16:59;97317.33;;;31.32;36.67
34065;BME280;20339;49.754;20.158;2022-09-06T07:19:31;97316.73;;;31.83;35.55
34065;BME280;20339;49.754;20.158;2022-09-06T07:22:02;97326.21;;;31.65;35.28
34065;BME280;20339;49.754;20.158;2022-09-06T07:24:33;97325.15;;;32.57;35.49
34065;BME280;20339;49.754;20.158;2022-09-06T07:27:04;97327.65;;;33.31;34.32
34065;BME280;20339;49.754;20.158;2022-09-06T07:29:35;97329.16;;;34.16;33.28
34065;BME280;20339;49.754;20.158;2022-09-06T07:32:06;97329.78;;;34.62;32.46
34065;BME280;20339;49.754;20.158;2022-09-06T07:34:37;97332.86;;;35.44;31.69
34065;BME280;20339;49.754;20.158;2022-09-06T07:37:09;97329.77;;;35.37;30.03
34065;BME280;20339;49.754;20.158;2022-09-06T07:39:40;97327.85;;;35.57;30.27
34065;BME280;20339;49.754;20.158;2022-09-06T07:42:10;97330.79;;;36.48;30.31
34065;BME280;20339;49.754;20.158;2022-09-06T07:44:42;97329.23;;;37.16;29.11
34065;BME280;20339;49.754;20.158;2022-09-06T07:47:14;97331.98;;;37.10;27.37
34065;BME280;20339;49.754;20.158;2022-09-06T07:49:46;97333.30;;;35.90;27.27
34065;BME280;20339;49.754;20.158;2022-09-06T07:52:17;97337.63;;;34.77;28.17
34065;BME280;20339;49.754;20.158;2022-09-06T07:54:48;97335.48;;;35.54;28.72
34065;BME280;20339;49.754;20.158;2022-09-06T07:57:19;97335.41;;;36.03;26.49
34065;BME280;20339;49.754;20.158;2022-09-06T07:59:53;97331.54;;;36.03;27.05
34065;BME280;20339;49.754;20.158;2022-09-06T08:02:24;97332.23;;;36.73;27.05
34065;BME280;20339;49.754;20.158;2022-09-06T08:04:56;97332.38;;;37.26;26.52
34065;BME280;20339;49.754;20.158;2022-09-06T08:07:27;97324.58;;;36.85;26.35
34065;BME280;20339;49.754;20.158;2022-09-06T08:09:58;97321.66;;;36.60;26.31
34065;BME280;20339;49.754;20.158;2022-09-06T08:12:29;97323.05;;;36.15;25.96
34065;BME280;20339;49.754;20.158;2022-09-06T08:15:00;97321.20;;;35.44;26.49
34065;BME280;20339;49.754;20.158;2022-09-06T08:17:31;97322.88;;;35.65;27.13
34065;BME280;20339;49.754;20.158;2022-09-06T08:20:05;97318.02;;;36.35;26.45
34065;BME280;20339;49.754;20.158;2022-09-06T08:22:37;97317.05;;;35.84;26.75
34065;BME280;20339;49.754;20.158;2022-09-06T08:25:09;97315.13;;;34.35;26.48
34065;BME280;20339;49.754;20.158;2022-09-06T08:27:40;97315.26;;;32.92;27.92
34065;BME280;20339;49.754;20.158;2022-09-06T08:30:12;97311.98;;;32.03;28.84
34065;BME280;20339;49.754;20.158;2022-09-06T08:32:43;97313.66;;;32.34;29.07
34065;BME280;20339;49.754;20.158;2022-09-06T08:35:15;97309.23;;;33.14;29.27
34065;BME280;20339;49.754;20.158;2022-09-06T08:37:46;97314.36;;;33.71;28.74
34065;BME280;20339;49.754;20.158;2022-09-06T08:40:21;97306.43;;;33.01;28.74
34065;BME280;20339;49.754;20.158;2022-09-06T08:42:53;97304.61;;;31.43;29.74
34065;BME280;20339;49.754;20.158;2022-09-06T08:45:25;97307.05;;;30.40;30.57
34065;BME280;20339;49.754;20.158;2022-09-06T08:47:56;97309.29;;;30.08;32.07
34065;BME280;20339;49.754;20.158;2022-09-06T08:50:28;97306.81;;;30.72;30.93
34065;BME280;20339;49.754;20.158;2022-09-06T08:53:03;97303.66;;;28.67;31.30
34065;BME280;20339;49.754;20.158;2022-09-06T08:55:39;97300.23;;;28.88;33.32
34065;BME280;20339;49.754;20.158;2022-09-06T08:58:36;97299.09;;;30.50;32.35
34065;BME280;20339;49.754;20.158;2022-09-06T09:01:20;97303.25;;;31.50;30.70
34065;BME280;20339;49.754;20.158;2022-09-06T09:03:56;97299.38;;;29.80;30.53
34065;BME280;20339;49.754;20.158;2022-09-06T09:06:32;97296.44;;;28.66;32.05
34065;BME280;20339;49.754;20.158;2022-09-06T09:09:05;97299.27;;;28.38;32.55
34065;BME280;20339;49.754;20.158;2022-09-06T09:11:37;97294.27;;;27.79;33.28
34065;BME280;20339;49.754;20.158;2022-09-06T09:14:15;97298.56;;;27.22;33.19
34065;BME280;20339;49.754;20.158;2022-09-06T09:16:51;97299.63;;;25.59;32.99
34065;BME280;20339;49.754;20.158;2022-09-06T09:19:23;97296.46;;;24.05;34.85
34065;BME280;20339;49.754;20.158;2022-09-06T09:21:54;97287.92;;;23.32;36.66
34065;BME280;20339;49.754;20.158;2022-09-06T09:24:25;97282.02;;;22.81;38.02
34065;BME280;20339;49.754;20.158;2022-09-06T09:27:01;97284.81;;;22.59;38.81
34065;BME280;20339;49.754;20.158;2022-09-06T09:29:33;97290.09;;;22.52;38.82
34065;BME280;20339;49.754;20.158;2022-09-06T09:32:32;97287.39;;;22.21;39.15
34065;BME280;20339;49.754;20.158;2022-09-06T09:35:26;97286.13;;;21.99;40.33
34065;BME280;20339;49.754;20.158;2022-09-06T09:38:02;97283.52;;;22.08;40.56
34065;BME280;20339;49.754;20.158;2022-09-06T09:40:38;97280.15;;;22.05;40.19
34065;BME280;20339;49.754;20.158;2022-09-06T09:43:15;97272.38;;;21.66;40.57
34065;BME280;20339;49.754;20.158;2022-09-06T09:46:07;97274.14;;;21.55;40.91
34065;BME280;20339;49.754;20.158;2022-09-06T09:48:39;97273.68;;;21.44;40.97
34065;BME280;20339;49.754;20.158;2022-09-06T09:51:24;97274.20;;;21.30;41.47
34065;BME280;20339;49.754;20.158;2022-09-06T09:53:59;97274.36;;;21.35;42.34
34065;BME280;20339;49.754;20.158;2022-09-06T09:56:44;97266.60;;;21.80;41.81
34065;BME280;20339;49.754;20.158;2022-09-06T09:59:23;97264.48;;;21.97;41.22
34065;BME280;20339;49.754;20.158;2022-09-06T10:01:57;97259.70;;;21.83;41.61
34065;BME280;20339;49.754;20.158;2022-09-06T10:04:36;97259.10;;;21.86;41.93
34065;BME280;20339;49.754;20.158;2022-09-06T10:07:15;97258.25;;;21.93;42.20
34065;BME280;20339;49.754;20.158;2022-09-06T10:09:49;97262.55;;;22.04;42.05
34065;BME280;20339;49.754;20.158;2022-09-06T10:12:31;97260.89;;;22.10;41.77
34065;BME280;20339;49.754;20.158;2022-09-06T10:15:04;97259.63;;;21.95;42.00
34065;BME280;20339;49.754;20.158;2022-09-06T10:17:37;97254.46;;;21.94;42.56
34065;BME280;20339;49.754;20.158;2022-09-06T10:20:17;97253.91;;;21.58;41.94
34065;BME280;20339;49.754;20.158;2022-09-06T10:22:54;97245.68;;;21.34;43.47
34065;BME280;20339;49.754;20.158;2022-09-06T10:25:41;97246.64;;;21.53;43.29
34065;BME280;20339;49.754;20.158;2022-09-06T10:28:28;97243.34;;;21.36;43.32
34065;BME280;20339;49.754;20.158;2022-09-06T10:31:30;97248.77;;;21.09;43.72
34065;BME280;20339;49.754;20.158;2022-09-06T10:34:53;97250.92;;;20.53;43.41
34065;BME280;20339;49.754;20.158;2022-09-06T10:37:39;97243.95;;;20.39;45.36
34065;BME280;20339;49.754;20.158;2022-09-06T10:40:31;97244.92;;;20.39;44.44
34065;BME280;20339;49.754;20.158;2022-09-06T10:43:04;97240.89;;;20.19;44.87
34065;BME280;20339;49.754;20.158;2022-09-06T10:45:55;97240.79;;;20.16;44.84
34065;BME280;20339;49.754;20.158;2022-09-06T10:48:30;97240.45;;;19.93;45.04
34065;BME280;20339;49.754;20.158;2022-09-06T10:51:07;97239.44;;;19.74;45.41
34065;BME280;20339;49.754;20.158;2022-09-06T10:53:45;97238.45;;;19.58;45.48
34065;BME280;20339;49.754;20.158;2022-09-06T10:56:19;97231.99;;;19.40;45.87
34065;BME280;20339;49.754;20.158;2022-09-06T10:58:56;97233.95;;;19.42;46.09
34065;BME280;20339;49.754;20.158;2022-09-06T11:01:35;97238.03;;;19.44;46.61
34065;BME280;20339;49.754;20.158;2022-09-06T11:04:10;97239.38;;;19.54;46.92
34065;BME280;20339;49.754;20.158;2022-09-06T11:06:52;97240.23;;;19.52;47.00
34065;BME280;20339;49.754;20.158;2022-09-06T11:09:31;97234.02;;;19.50;47.41
34065;BME280;20339;49.754;20.158;2022-09-06T11:12:08;97228.56;;;19.47;47.69
34065;BME280;20339;49.754;20.158;2022-09-06T11:14:42;97223.61;;;19.45;47.61
34065;BME280;20339;49.754;20.158;2022-09-06T11:17:17;97223.00;;;19.48;47.94
34065;BME280;20339;49.754;20.158;2022-09-06T11:20:01;97214.46;;;19.59;48.20
34065;BME280;20339;49.754;20.158;2022-09-06T11:23:00;97211.44;;;19.62;47.69
34065;BME280;20339;49.754;20.158;2022-09-06T11:25:57;97218.73;;;19.60;48.00
34065;BME280;20339;49.754;20.158;2022-09-06T11:28:36;97222.81;;;19.60;48.26
34065;BME280;20339;49.754;20.158;2022-09-06T11:31:14;97217.42;;;19.60;48.16
34065;BME280;20339;49.754;20.158;2022-09-06T11:33:55;97212.67;;;19.64;48.69
34065;BME280;20339;49.754;20.158;2022-09-06T11:36:35;97213.96;;;19.79;48.72
34065;BME280;20339;49.754;20.158;2022-09-06T11:39:08;97212.70;;;19.95;48.46
34065;BME280;20339;49.754;20.158;2022-09-06T11:41:41;97222.40;;;20.12;48.42
34065;BME280;20339;49.754;20.158;2022-09-06T11:45:11;97220.98;;;20.24;47.89
34065;BME280;20339;49.754;20.158;2022-09-06T11:47:47;97212.27;;;20.48;47.72
34065;BME280;20339;49.754;20.158;2022-09-06T11:53:15;97201.13;;;20.98;47.24
34065;BME280;20339;49.754;20.158;2022-09-06T11:55:49;97202.43;;;21.08;46.90
34065;BME280;20339;49.754;20.158;2022-09-06T11:58:25;97200.77;;;20.96;45.79
34065;BME280;20339;49.754;20.158;2022-09-06T12:01:38;97202.34;;;20.41;44.83
34065;BME280;20339;49.754;20.158;2022-09-06T12:04:11;97198.42;;;20.03;46.12
34065;BME280;20339;49.754;20.158;2022-09-06T12:07:08;97196.19;;;19.99;46.45
34065;BME280;20339;49.754;20.158;2022-09-06T12:09:41;97195.98;;;20.29;47.24
34065;BME280;20339;49.754;20.158;2022-09-06T12:12:41;97190.11;;;20.35;46.62
34065;BME280;20339;49.754;20.158;2022-09-06T12:15:41;97184.10;;;20.40;46.57
34065;BME280;20339;49.754;20.158;2022-09-06T12:18:57;97184.41;;;20.15;46.46
34065;BME280;20339;49.754;20.158;2022-09-06T12:21:41;97181.05;;;19.98;46.71
34065;BME280;20339;49.754;20.158;2022-09-06T12:27:20;97179.02;;;20.25;47.05
34065;BME280;20339;49.754;20.158;2022-09-06T12:29:59;97179.30;;;20.28;46.92
34065;BME280;20339;49.754;20.158;2022-09-06T12:32:33;97176.62;;;20.44;47.19
34065;BME280;20339;49.754;20.158;2022-09-06T12:35:11;97176.15;;;20.48;46.75
34065;BME280;20339;49.754;20.158;2022-09-06T12:37:53;97168.08;;;20.43;46.68
34065;BME280;20339;49.754;20.158;2022-09-06T12:40:26;97174.87;;;20.27;45.66
34065;BME280;20339;49.754;20.158;2022-09-06T12:43:00;97165.45;;;20.08;46.63
34065;BME280;20339;49.754;20.158;2022-09-06T12:45:32;97163.00;;;20.04;46.67
34065;BME280;20339;49.754;20.158;2022-09-06T12:48:10;97166.29;;;20.06;46.68
34065;BME280;20339;49.754;20.158;2022-09-06T12:50:41;97164.76;;;19.94;46.51
34065;BME280;20339;49.754;20.158;2022-09-06T12:53:21;97164.79;;;19.95;46.67
34065;BME280;20339;49.754;20.158;2022-09-06T12:56:05;97163.91;;;19.92;46.92
34065;BME280;20339;49.754;20.158;2022-09-06T12:58:37;97164.65;;;19.87;47.29
34065;BME280;20339;49.754;20.158;2022-09-06T13:01:15;97159.89;;;20.01;47.64
34065;BME280;20339;49.754;20.158;2022-09-06T13:03:57;97156.78;;;20.10;47.79
34065;BME280;20339;49.754;20.158;2022-09-06T13:06:31;97153.94;;;20.23;47.59
34065;BME280;20339;49.754;20.158;2022-09-06T13:09:08;97149.31;;;20.22;46.63
34065;BME280;20339;49.754;20.158;2022-09-06T13:11:45;97147.66;;;20.03;47.32
34065;BME280;20339;49.754;20.158;2022-09-06T13:14:22;97147.71;;;20.08;47.34
34065;BME280;20339;49.754;20.158;2022-09-06T13:16:55;97146.15;;;20.05;47.44
34065;BME280;20339;49.754;20.158;2022-09-06T13:19:33;97146.31;;;20.08;47.50
34065;BME280;20339;49.754;20.158;2022-09-06T13:22:06;97151.17;;;20.12;46.61
34065;BME280;20339;49.754;20.158;2022-09-06T13:24:43;97150.35;;;19.95;46.71
34065;BME280;20339;49.754;20.158;2022-09-06T13:27:31;97155.37;;;19.80;47.57
34065;BME280;20339;49.754;20.158;2022-09-06T13:30:06;97151.77;;;19.78;47.59
34065;BME280;20339;49.754;20.158;2022-09-06T13:32:46;97151.55;;;19.75;47.49
34065;BME280;20339;49.754;20.158;2022-09-06T13:35:25;97151.40;;;19.73;47.92
34065;BME280;20339;49.754;20.158;2022-09-06T13:41:06;97144.25;;;20.00;47.44
34065;BME280;20339;49.754;20.158;2022-09-06T13:43:59;97142.27;;;20.01;47.26
34065;BME280;20339;49.754;20.158;2022-09-06T13:46:35;97136.69;;;20.00;47.75
34065;BME280;20339;49.754;20.158;2022-09-06T13:49:06;97133.98;;;20.01;47.67